createdAt,value
2022-07-25T00:00:29.003Z,62.70
2022-07-25T00:03:57.772Z,62.66
2022-07-25T00:07:27.506Z,62.68
2022-07-25T00:10:55.341Z,62.73
2022-07-25T00:14:22.867Z,62.73
2022-07-25T00:17:54.138Z,62.89
2022-07-25T00:21:22.032Z,63.03
2022-07-25T00:24:49.361Z,62.99
2022-07-25T00:28:16.596Z,63.19
2022-07-25T00:31:43.811Z,63.25
2022-07-25T00:35:12.304Z,63.26
2022-07-25T00:38:40.898Z,63.22
2022-07-25T00:42:14.827Z,63.34
2022-07-25T00:45:42.604Z,63.36
2022-07-25T00:49:11.621Z,63.37
2022-07-25T00:52:39.714Z,63.37
2022-07-25T00:56:14.285Z,63.36
2022-07-25T00:59:44.364Z,63.50
2022-07-25T01:03:11.685Z,63.59
2022-07-25T01:06:47.463Z,63.65
2022-07-25T01:10:16.089Z,63.62
2022-07-25T01:13:47.097Z,63.74
2022-07-25T01:17:16.099Z,63.76
2022-07-25T01:20:50.059Z,63.92
2022-07-25T01:24:21.771Z,64.10
2022-07-25T01:27:55.480Z,64.04
2022-07-25T01:31:26.839Z,64.16
2022-07-25T01:34:57.986Z,64.13
2022-07-25T01:38:30.446Z,64.14
2022-07-25T01:42:02.658Z,64.25
2022-07-25T01:45:32.141Z,64.15
2022-07-25T01:49:00.312Z,64.25
2022-07-25T01:52:28.527Z,64.23
2022-07-25T01:55:56.241Z,64.21
2022-07-25T01:59:29.457Z,64.29
2022-07-25T02:03:10.169Z,64.36
2022-07-25T02:06:37.669Z,64.44
2022-07-25T02:10:06.517Z,64.54
2022-07-25T02:13:33.525Z,64.62
2022-07-25T02:17:01.801Z,64.74
2022-07-25T02:20:30.677Z,64.85
2022-07-25T02:24:01.507Z,64.80
2022-07-25T02:27:30.859Z,64.84
2022-07-25T02:31:05.221Z,64.86
2022-07-25T02:34:32.337Z,64.81
2022-07-25T02:37:59.581Z,64.95
2022-07-25T02:41:28.467Z,64.83
2022-07-25T02:44:57.557Z,64.83
2022-07-25T02:48:25.656Z,64.91
2022-07-25T02:51:53.243Z,64.92
2022-07-25T02:55:22.703Z,65.01
2022-07-25T02:58:50.889Z,65.08
2022-07-25T03:02:18.148Z,65.20
2022-07-25T03:05:45.882Z,65.18
2022-07-25T03:09:15.463Z,65.34
2022-07-25T03:12:45.167Z,65.39
2022-07-25T03:16:14.981Z,65.43
2022-07-25T03:19:43.373Z,65.49
2022-07-25T03:23:11.785Z,65.49
2022-07-25T03:26:39.458Z,65.57
2022-07-25T03:30:08.355Z,65.64
2022-07-25T03:33:36.408Z,65.70
2022-07-25T03:37:05.081Z,65.66
2022-07-25T03:40:37.477Z,65.72
2022-07-25T03:44:08.799Z,65.69
2022-07-25T03:47:38.402Z,65.85
2022-07-25T03:51:07.358Z,65.88
2022-07-25T03:54:38.160Z,65.91
2022-07-25T03:58:06.507Z,65.93
2022-07-25T04:01:34.246Z,66.10
2022-07-25T04:05:01.909Z,66.17
2022-07-25T04:08:28.940Z,66.24
2022-07-25T04:11:55.929Z,66.50
2022-07-25T04:15:23.072Z,66.58
2022-07-25T04:18:50.698Z,66.71
2022-07-25T04:22:18.712Z,66.77
2022-07-25T04:25:45.854Z,66.75
2022-07-25T04:29:13.747Z,66.93
2022-07-25T04:32:40.587Z,66.82
2022-07-25T04:36:10.301Z,66.85
2022-07-25T04:39:38.185Z,66.90
2022-07-25T04:43:05.461Z,66.68
2022-07-25T04:46:32.253Z,66.62
2022-07-25T04:50:00.171Z,66.56
2022-07-25T04:53:28.228Z,66.55
2022-07-25T04:56:55.973Z,66.44
2022-07-25T05:00:35.459Z,66.32
2022-07-25T05:04:07.537Z,66.30
2022-07-25T05:07:35.376Z,66.41
2022-07-25T05:11:02.693Z,66.41
2022-07-25T05:14:30.516Z,66.46
2022-07-25T05:17:57.984Z,66.42
2022-07-25T05:21:30.018Z,66.47
2022-07-25T05:24:58.538Z,66.44
2022-07-25T05:28:25.900Z,66.33
2022-07-25T05:31:53.004Z,66.14
2022-07-25T05:35:20.719Z,66.07
2022-07-25T05:38:48.202Z,66.19
2022-07-25T05:42:15.914Z,66.02
2022-07-25T05:45:51.846Z,65.94
2022-07-25T05:49:20.554Z,65.92
2022-07-25T05:52:48.379Z,65.83
2022-07-25T05:56:15.536Z,65.92
2022-07-25T05:59:42.555Z,65.64
2022-07-25T06:03:09.771Z,65.73
2022-07-25T06:06:36.807Z,65.66
2022-07-25T06:10:04.107Z,65.67
2022-07-25T06:13:31.317Z,65.62
2022-07-25T06:17:01.999Z,65.57
2022-07-25T06:20:29.055Z,65.58
2022-07-25T06:23:56.704Z,65.36
2022-07-25T06:27:28.872Z,65.14
2022-07-25T06:30:58.103Z,64.95
2022-07-25T06:34:28.823Z,64.71
2022-07-25T06:37:56.565Z,64.64
2022-07-25T06:41:23.423Z,64.50
2022-07-25T06:44:50.805Z,64.37
2022-07-25T06:48:18.392Z,64.27
2022-07-25T06:51:46.431Z,64.06
2022-07-25T06:55:19.266Z,63.85
2022-07-25T06:58:46.997Z,63.66
2022-07-25T07:02:14.342Z,63.52
2022-07-25T07:05:43.566Z,63.32
2022-07-25T07:09:12.560Z,63.19
2022-07-25T07:12:40.095Z,62.99
2022-07-25T07:16:09.497Z,62.60
2022-07-25T07:19:39.418Z,62.39
2022-07-25T07:23:08.995Z,62.26
2022-07-25T07:26:38.017Z,61.90
2022-07-25T07:30:07.383Z,61.79
2022-07-25T07:33:37.019Z,61.60
2022-07-25T07:37:05.243Z,61.24
2022-07-25T07:40:32.606Z,60.95
2022-07-25T07:44:00.313Z,60.89
2022-07-25T07:47:27.653Z,60.80
2022-07-25T07:50:54.747Z,60.21
2022-07-25T07:54:41.240Z,59.96
2022-07-25T07:58:10.470Z,59.59
2022-07-25T08:01:39.544Z,59.21
2022-07-25T08:05:15.931Z,59.10
2022-07-25T08:08:43.575Z,58.94
2022-07-25T08:12:15.012Z,58.73
2022-07-25T08:15:43.897Z,58.38
2022-07-25T08:19:12.779Z,57.78
2022-07-25T08:22:46.774Z,57.80
2022-07-25T08:26:38.170Z,57.32
2022-07-25T08:30:13.033Z,56.78
2022-07-25T08:33:40.884Z,56.44
2022-07-25T08:37:10.062Z,56.08
2022-07-25T08:40:47.177Z,55.88
2022-07-25T08:44:15.914Z,55.59
2022-07-25T08:47:47.904Z,55.45
2022-07-25T08:51:18.340Z,55.42
2022-07-25T08:54:49.894Z,55.05
2022-07-25T08:58:21.265Z,55.18
2022-07-25T09:01:51.849Z,55.05
2022-07-25T09:05:20.632Z,54.75
2022-07-25T09:09:05.857Z,54.33
2022-07-25T09:12:34.937Z,53.83
2022-07-25T09:16:06.773Z,53.69
2022-07-25T09:19:58.608Z,53.51
2022-07-25T09:23:39.898Z,53.13
2022-07-25T09:27:14.974Z,53.05
2022-07-25T09:30:55.193Z,52.91
2022-07-25T09:34:39.169Z,52.66
2022-07-25T09:38:16.350Z,52.00
2022-07-25T09:41:45.736Z,51.65
2022-07-25T09:45:16.420Z,51.45
2022-07-25T09:48:59.475Z,51.17
2022-07-25T09:52:29.961Z,50.76
2022-07-25T09:55:59.479Z,50.17
2022-07-25T09:59:28.232Z,50.05
2022-07-25T10:03:13.450Z,49.96
2022-07-25T10:06:50.047Z,49.34
2022-07-25T10:10:29.999Z,48.90
2022-07-25T10:13:58.438Z,48.79
2022-07-25T10:17:26.029Z,48.87
2022-07-25T10:20:55.739Z,48.96
2022-07-25T10:24:23.070Z,48.42
2022-07-25T10:27:53.274Z,48.14
2022-07-25T10:31:36.511Z,47.56
2022-07-25T10:35:18.123Z,47.71
2022-07-25T10:38:49.202Z,47.33
2022-07-25T10:42:23.190Z,47.19
2022-07-25T10:46:01.403Z,46.93
2022-07-25T10:49:37.502Z,46.86
2022-07-25T10:53:10.503Z,46.66
2022-07-25T10:56:59.339Z,46.48
2022-07-25T11:00:29.159Z,46.40
2022-07-25T11:04:00.739Z,46.27
2022-07-25T11:07:36.854Z,45.87
2022-07-25T11:11:10.000Z,45.57
2022-07-25T11:14:41.741Z,45.16
2022-07-25T11:18:09.230Z,44.95
2022-07-25T11:21:48.418Z,44.78
2022-07-25T11:25:17.219Z,44.31
2022-07-25T11:28:47.077Z,44.15
2022-07-25T11:32:16.867Z,44.01
2022-07-25T11:35:45.179Z,43.77
2022-07-25T11:39:18.613Z,43.53
2022-07-25T11:42:48.204Z,43.28
2022-07-25T11:46:15.786Z,42.60
2022-07-25T11:49:49.974Z,42.36
2022-07-25T11:53:20.198Z,42.16
2022-07-25T11:56:48.101Z,42.32
2022-07-25T12:00:21.384Z,42.11
2022-07-25T12:03:51.161Z,41.45
2022-07-25T12:07:18.974Z,41.66
2022-07-25T12:10:47.792Z,41.60
2022-07-25T12:14:16.704Z,41.26
2022-07-25T12:17:50.048Z,41.13
2022-07-25T12:21:17.749Z,40.97
2022-07-25T12:24:45.097Z,40.53
2022-07-25T12:28:12.457Z,40.55
2022-07-25T12:31:39.982Z,39.98
2022-07-25T12:35:10.976Z,39.88
2022-07-25T12:38:38.677Z,39.36
2022-07-25T12:42:05.982Z,39.39
2022-07-25T12:45:33.301Z,39.03
2022-07-25T12:49:00.292Z,39.14
2022-07-25T12:52:27.973Z,38.54
2022-07-25T12:55:56.069Z,38.27
2022-07-25T12:59:24.162Z,38.10
2022-07-25T13:02:53.494Z,38.06
2022-07-25T13:06:21.458Z,37.79
2022-07-25T13:09:49.931Z,37.28
2022-07-25T13:13:17.296Z,37.19
2022-07-25T13:16:46.192Z,36.61
2022-07-25T13:20:17.275Z,36.19
2022-07-25T13:23:44.820Z,36.08
2022-07-25T13:27:13.418Z,35.92
2022-07-25T13:30:43.793Z,35.49
2022-07-25T13:34:12.024Z,35.19
2022-07-25T13:37:46.579Z,20.65
2022-07-25T13:41:15.398Z,34.78
2022-07-25T13:44:43.053Z,34.73
2022-07-25T13:48:30.914Z,34.28
2022-07-25T13:52:03.139Z,34.09
2022-07-25T13:55:30.476Z,33.62
2022-07-25T13:58:57.587Z,33.53
2022-07-25T14:02:25.060Z,33.43
2022-07-25T14:05:52.383Z,33.23
2022-07-25T14:09:20.609Z,32.92
2022-07-25T14:12:50.367Z,32.48
2022-07-25T14:16:19.650Z,32.24
2022-07-25T14:19:47.022Z,32.13
2022-07-25T14:23:14.559Z,31.63
2022-07-25T14:26:47.041Z,31.83
2022-07-25T14:30:16.409Z,31.21
2022-07-25T14:33:47.104Z,30.74
2022-07-25T14:37:15.116Z,30.87
2022-07-25T14:40:45.178Z,30.96
2022-07-25T14:44:12.950Z,30.47
2022-07-25T14:47:42.646Z,30.29
2022-07-25T14:51:10.361Z,30.14
2022-07-25T14:54:37.406Z,29.86
2022-07-25T14:58:06.345Z,29.70
2022-07-25T15:01:34.703Z,29.47
2022-07-25T15:05:02.993Z,29.55
2022-07-25T15:08:32.189Z,29.13
2022-07-25T15:11:59.572Z,28.92
2022-07-25T15:15:26.673Z,28.72
2022-07-25T15:19:15.352Z,28.64
2022-07-25T15:22:41.682Z,28.42
2022-07-25T15:26:09.110Z,28.55
2022-07-25T15:29:38.162Z,28.21
2022-07-25T15:33:06.789Z,27.83
2022-07-25T15:36:34.438Z,27.82
2022-07-25T15:40:10.974Z,28.02
2022-07-25T15:43:38.929Z,27.43
2022-07-25T15:47:07.837Z,27.26
2022-07-25T15:50:48.060Z,27.51
2022-07-25T15:54:30.940Z,27.31
2022-07-25T15:58:08.126Z,26.93
2022-07-25T16:01:40.034Z,26.98
2022-07-25T16:05:14.964Z,26.86
2022-07-25T16:08:42.812Z,26.68
2022-07-25T16:12:28.562Z,26.80
2022-07-25T16:16:02.733Z,26.78
2022-07-25T16:19:43.143Z,26.90
2022-07-25T16:23:14.202Z,27.10
2022-07-25T16:26:41.206Z,27.36
2022-07-25T16:30:10.955Z,27.29
2022-07-25T16:33:38.732Z,27.26
2022-07-25T16:37:07.570Z,27.43
2022-07-25T16:40:36.074Z,27.58
2022-07-25T16:44:03.429Z,27.90
2022-07-25T16:47:31.161Z,28.12
2022-07-25T16:50:59.483Z,28.26
2022-07-25T16:54:26.954Z,28.59
2022-07-25T16:57:59.400Z,28.81
2022-07-25T17:01:28.907Z,28.86
2022-07-25T17:04:56.522Z,28.89
2022-07-25T17:08:23.863Z,29.00
2022-07-25T17:11:54.395Z,29.29
2022-07-25T17:15:23.426Z,29.52
2022-07-25T17:18:51.038Z,29.69
2022-07-25T17:22:20.651Z,29.84
2022-07-25T17:25:51.778Z,29.86
2022-07-25T17:29:24.762Z,30.21
2022-07-25T17:33:10.849Z,30.35
2022-07-25T17:36:38.204Z,30.40
2022-07-25T17:40:09.077Z,30.58
2022-07-25T17:43:36.990Z,30.76
2022-07-25T17:47:05.610Z,31.05
2022-07-25T17:50:34.644Z,31.31
2022-07-25T17:54:02.992Z,31.43
2022-07-25T17:57:30.514Z,31.66
2022-07-25T18:01:10.249Z,31.68
2022-07-25T18:04:38.551Z,31.87
2022-07-25T18:08:06.080Z,32.05
2022-07-25T18:11:33.675Z,32.24
2022-07-25T18:15:04.411Z,32.20
2022-07-25T18:18:32.035Z,32.53
2022-07-25T18:21:59.416Z,32.56
2022-07-25T18:25:26.909Z,32.66
2022-07-25T18:28:53.927Z,32.82
2022-07-25T18:32:21.207Z,33.22
2022-07-25T18:35:48.827Z,33.34
2022-07-25T18:39:16.369Z,33.50
2022-07-25T18:42:44.917Z,33.69
2022-07-25T18:46:12.841Z,33.92
2022-07-25T18:49:46.114Z,33.98
2022-07-25T18:53:16.539Z,34.47
2022-07-25T18:56:44.791Z,34.36
2022-07-25T19:00:14.113Z,34.57
2022-07-25T19:03:41.674Z,34.85
2022-07-25T19:07:09.123Z,34.99
2022-07-25T19:10:36.611Z,34.98
2022-07-25T19:14:04.925Z,35.28
2022-07-25T19:17:33.547Z,35.56
2022-07-25T19:21:03.069Z,35.87
2022-07-25T19:24:31.858Z,35.86
2022-07-25T19:27:59.025Z,35.87
2022-07-25T19:31:27.036Z,36.10
2022-07-25T19:35:00.244Z,36.26
2022-07-25T19:38:27.971Z,36.56
2022-07-25T19:41:57.340Z,36.60
2022-07-25T19:45:25.348Z,36.84
2022-07-25T19:48:56.693Z,36.98
2022-07-25T19:52:23.968Z,37.13
2022-07-25T19:55:54.672Z,37.30
2022-07-25T19:59:32.702Z,37.40
2022-07-25T20:03:01.230Z,37.41
2022-07-25T20:06:29.453Z,37.57
2022-07-25T20:10:05.315Z,37.77
2022-07-25T20:13:38.458Z,37.81
2022-07-25T20:17:06.734Z,38.00
2022-07-25T20:20:35.882Z,38.13
2022-07-25T20:24:07.762Z,38.24
2022-07-25T20:27:36.291Z,38.48
2022-07-25T20:31:07.032Z,38.51
2022-07-25T20:34:34.800Z,38.68
2022-07-25T20:38:02.762Z,38.95
2022-07-25T20:41:41.074Z,39.14
2022-07-25T20:45:10.713Z,39.12
2022-07-25T20:48:39.387Z,39.43
2022-07-25T20:52:12.048Z,39.49
2022-07-25T20:55:44.655Z,39.63
2022-07-25T20:59:16.782Z,39.79
2022-07-25T21:02:46.634Z,39.99
2022-07-25T21:06:13.902Z,40.06
2022-07-25T21:09:43.026Z,40.31
2022-07-25T21:13:12.239Z,40.40
2022-07-25T21:16:43.282Z,40.61
2022-07-25T21:20:14.722Z,40.63
2022-07-25T21:23:42.335Z,40.80
2022-07-25T21:27:10.768Z,41.00
2022-07-25T21:30:41.511Z,41.05
2022-07-25T21:34:09.352Z,41.39
2022-07-25T21:37:37.151Z,41.64
2022-07-25T21:41:07.766Z,41.57
2022-07-25T21:44:36.769Z,41.81
2022-07-25T21:48:15.802Z,42.01
2022-07-25T21:51:59.691Z,42.21
2022-07-25T21:55:28.326Z,42.33
2022-07-25T21:58:59.903Z,42.37
2022-07-25T22:02:46.035Z,42.61
2022-07-25T22:06:32.632Z,42.89
2022-07-25T22:10:00.486Z,43.10
2022-07-25T22:13:27.805Z,43.06
2022-07-25T22:16:58.079Z,43.23
2022-07-25T22:20:25.734Z,43.59
2022-07-25T22:23:53.079Z,43.75
2022-07-25T22:27:21.454Z,43.97
2022-07-25T22:30:49.013Z,43.98
2022-07-25T22:34:16.565Z,44.03
2022-07-25T22:37:45.033Z,43.95
2022-07-25T22:41:16.324Z,44.45
2022-07-25T22:44:45.533Z,44.53
2022-07-25T22:48:15.034Z,44.54
2022-07-25T22:51:43.041Z,44.81
2022-07-25T22:55:12.319Z,44.89
2022-07-25T22:58:39.487Z,45.05
2022-07-25T23:02:07.611Z,45.05
2022-07-25T23:05:40.148Z,45.22
2022-07-25T23:09:08.931Z,45.43
2022-07-25T23:12:36.361Z,45.49
2022-07-25T23:16:04.834Z,45.45
2022-07-25T23:19:42.107Z,45.60
2022-07-25T23:23:09.797Z,46.00
2022-07-25T23:26:38.465Z,46.08
2022-07-25T23:30:06.911Z,46.13
2022-07-25T23:33:34.710Z,46.23
2022-07-25T23:37:04.568Z,46.20
2022-07-25T23:40:32.143Z,46.61
2022-07-25T23:44:00.915Z,46.63
2022-07-25T23:47:53.512Z,46.74
2022-07-25T23:51:22.233Z,46.67
2022-07-25T23:54:49.532Z,46.71
2022-07-25T23:58:16.790Z,46.67
